sensor_id;sensor_type;location;lat;lon;timestamp;temperature;humidity
14527;DHT22;7350;51.208;4.238;2022-08-11T00:00:21;23.50;99.90
14527;DHT22;7350;51.208;4.238;2022-08-11T00:03:03;23.40;99.90
14527;DHT22;7350;51.208;4.238;2022-08-11T00:05:42;23.40;99.90
14527;DHT22;7350;51.208;4.238;2022-08-11T00:08:10;23.20;99.90
14527;DHT22;7350;51.208;4.238;2022-08-11T00:10:51;23.00;99.90
14527;DHT22;7350;51.208;4.238;2022-08-11T00:13:19;23.10;99.90
14527;DHT22;7350;51.208;4.238;2022-08-11T00:15:48;23.00;99.90
14527;DHT22;7350;51.208;4.238;2022-08-11T00:18:16;23.10;99.90
14527;DHT22;7350;51.208;4.238;2022-08-11T00:20:45;23.20;99.90
14527;DHT22;7350;51.208;4.238;2022-08-11T00:23:14;23.20;99.90
14527;DHT22;7350;51.208;4.238;2022-08-11T00:25:44;23.20;99.90
14527;DHT22;7350;51.208;4.238;2022-08-11T00:28:27;23.10;99.90
14527;DHT22;7350;51.208;4.238;2022-08-11T00:30:57;23.00;99.90
14527;DHT22;7350;51.208;4.238;2022-08-11T00:33:32;22.80;99.90
14527;DHT22;7350;51.208;4.238;2022-08-11T00:36:02;22.80;99.90
14527;DHT22;7350;51.208;4.238;2022-08-11T00:38:32;22.50;99.90
14527;DHT22;7350;51.208;4.238;2022-08-11T00:41:08;22.40;99.90
14527;DHT22;7350;51.208;4.238;2022-08-11T00:43:49;22.70;99.90
14527;DHT22;7350;51.208;4.238;2022-08-11T00:46:26;23.00;99.90
14527;DHT22;7350;51.208;4.238;2022-08-11T00:49:05;23.10;99.90
14527;DHT22;7350;51.208;4.238;2022-08-11T00:51:54;23.30;99.90
14527;DHT22;7350;51.208;4.238;2022-08-11T00:54:52;23.20;99.90
14527;DHT22;7350;51.208;4.238;2022-08-11T00:57:44;23.20;99.90
14527;DHT22;7350;51.208;4.238;2022-08-11T01:00:20;23.00;99.90
14527;DHT22;7350;51.208;4.238;2022-08-11T01:03:17;22.90;99.90
14527;DHT22;7350;51.208;4.238;2022-08-11T01:06:27;23.10;99.90
14527;DHT22;7350;51.208;4.238;2022-08-11T01:09:30;23.20;99.90
14527;DHT22;7350;51.208;4.238;2022-08-11T01:12:29;23.20;99.90
14527;DHT22;7350;51.208;4.238;2022-08-11T01:15:31;23.10;99.90
14527;DHT22;7350;51.208;4.238;2022-08-11T01:27:24;22.90;99.90
14527;DHT22;7350;51.208;4.238;2022-08-11T01:33:26;22.80;99.90
14527;DHT22;7350;51.208;4.238;2022-08-11T01:36:49;22.60;99.90
14527;DHT22;7350;51.208;4.238;2022-08-11T01:40:06;22.40;99.90
14527;DHT22;7350;51.208;4.238;2022-08-11T01:43:13;22.30;99.90
14527;DHT22;7350;51.208;4.238;2022-08-11T01:46:04;22.10;99.90
14527;DHT22;7350;51.208;4.238;2022-08-11T01:48:38;22.20;99.90
14527;DHT22;7350;51.208;4.238;2022-08-11T01:51:19;22.20;99.90
14527;DHT22;7350;51.208;4.238;2022-08-11T01:54:00;22.10;99.90
14527;DHT22;7350;51.208;4.238;2022-08-11T01:56:45;22.20;99.90
14527;DHT22;7350;51.208;4.238;2022-08-11T01:59:17;22.10;99.90
14527;DHT22;7350;51.208;4.238;2022-08-11T02:02:04;22.00;99.90
14527;DHT22;7350;51.208;4.238;2022-08-11T02:04:42;21.90;99.90
14527;DHT22;7350;51.208;4.238;2022-08-11T02:07:17;22.00;99.90
14527;DHT22;7350;51.208;4.238;2022-08-11T02:09:55;21.90;99.90
14527;DHT22;7350;51.208;4.238;2022-08-11T02:12:43;22.00;99.90
14527;DHT22;7350;51.208;4.238;2022-08-11T02:15:22;22.10;99.90
14527;DHT22;7350;51.208;4.238;2022-08-11T02:17:58;22.00;99.90
14527;DHT22;7350;51.208;4.238;2022-08-11T02:20:35;21.70;99.90
14527;DHT22;7350;51.208;4.238;2022-08-11T02:23:27;21.70;99.90
14527;DHT22;7350;51.208;4.238;2022-08-11T02:26:13;21.80;99.90
14527;DHT22;7350;51.208;4.238;2022-08-11T02:29:04;22.00;99.90
14527;DHT22;7350;51.208;4.238;2022-08-11T02:31:53;22.20;99.90
14527;DHT22;7350;51.208;4.238;2022-08-11T02:34:47;22.40;99.90
14527;DHT22;7350;51.208;4.238;2022-08-11T02:37:26;22.40;99.90
14527;DHT22;7350;51.208;4.238;2022-08-11T02:40:07;22.40;99.90
14527;DHT22;7350;51.208;4.238;2022-08-11T02:42:48;22.50;99.90
14527;DHT22;7350;51.208;4.238;2022-08-11T02:45:30;22.60;99.90
14527;DHT22;7350;51.208;4.238;2022-08-11T02:48:03;22.40;99.90
14527;DHT22;7350;51.208;4.238;2022-08-11T02:50:52;22.40;99.90
14527;DHT22;7350;51.208;4.238;2022-08-11T02:53:29;22.50;99.90
14527;DHT22;7350;51.208;4.238;2022-08-11T02:56:05;22.30;99.90
14527;DHT22;7350;51.208;4.238;2022-08-11T02:58:43;22.40;99.90
14527;DHT22;7350;51.208;4.238;2022-08-11T03:01:42;22.30;99.90
14527;DHT22;7350;51.208;4.238;2022-08-11T03:04:19;22.20;99.90
14527;DHT22;7350;51.208;4.238;2022-08-11T03:06:51;22.10;99.90
14527;DHT22;7350;51.208;4.238;2022-08-11T03:09:26;22.10;99.90
14527;DHT22;7350;51.208;4.238;2022-08-11T03:12:03;22.10;99.90
14527;DHT22;7350;51.208;4.238;2022-08-11T03:14:55;22.20;99.90
14527;DHT22;7350;51.208;4.238;2022-08-11T03:17:50;22.20;99.90
14527;DHT22;7350;51.208;4.238;2022-08-11T03:20:30;22.00;99.90
14527;DHT22;7350;51.208;4.238;2022-08-11T03:23:08;22.10;99.90
14527;DHT22;7350;51.208;4.238;2022-08-11T03:25:45;22.00;99.90
14527;DHT22;7350;51.208;4.238;2022-08-11T03:28:25;22.00;99.90
14527;DHT22;7350;51.208;4.238;2022-08-11T03:31:06;22.10;99.90
14527;DHT22;7350;51.208;4.238;2022-08-11T03:33:39;22.00;99.90
14527;DHT22;7350;51.208;4.238;2022-08-11T03:36:51;21.90;99.90
14527;DHT22;7350;51.208;4.238;2022-08-11T03:39:25;21.90;99.90
14527;DHT22;7350;51.208;4.238;2022-08-11T03:42:07;21.90;99.90
14527;DHT22;7350;51.208;4.238;2022-08-11T03:44:47;21.80;99.90
14527;DHT22;7350;51.208;4.238;2022-08-11T03:47:33;21.70;99.90
14527;DHT22;7350;51.208;4.238;2022-08-11T03:50:12;21.70;99.90
14527;DHT22;7350;51.208;4.238;2022-08-11T03:52:50;21.50;99.90
14527;DHT22;7350;51.208;4.238;2022-08-11T03:55:29;21.40;99.90
14527;DHT22;7350;51.208;4.238;2022-08-11T03:58:37;21.40;99.90
14527;DHT22;7350;51.208;4.238;2022-08-11T04:08:14;21.60;99.90
14527;DHT22;7350;51.208;4.238;2022-08-11T04:14:26;21.70;99.90
14527;DHT22;7350;51.208;4.238;2022-08-11T04:21:01;21.50;99.90
14527;DHT22;7350;51.208;4.238;2022-08-11T04:23:58;21.50;99.90
14527;DHT22;7350;51.208;4.238;2022-08-11T04:26:55;21.30;99.90
14527;DHT22;7350;51.208;4.238;2022-08-11T04:29:53;21.20;99.90
14527;DHT22;7350;51.208;4.238;2022-08-11T04:32:37;21.40;99.90
14527;DHT22;7350;51.208;4.238;2022-08-11T04:35:30;21.30;99.90
14527;DHT22;7350;51.208;4.238;2022-08-11T04:38:30;21.30;99.90
14527;DHT22;7350;51.208;4.238;2022-08-11T04:47:43;21.10;99.90
14527;DHT22;7350;51.208;4.238;2022-08-11T04:50:44;21.20;99.90
14527;DHT22;7350;51.208;4.238;2022-08-11T04:53:44;21.20;99.90
14527;DHT22;7350;51.208;4.238;2022-08-11T04:56:34;21.20;99.90
14527;DHT22;7350;51.208;4.238;2022-08-11T05:05:51;21.20;99.90
14527;DHT22;7350;51.208;4.238;2022-08-11T05:11:58;21.30;99.90
14527;DHT22;7350;51.208;4.238;2022-08-11T05:14:33;21.20;99.90
14527;DHT22;7350;51.208;4.238;2022-08-11T05:17:35;21.20;99.90
14527;DHT22;7350;51.208;4.238;2022-08-11T05:20:20;21.30;99.90
14527;DHT22;7350;51.208;4.238;2022-08-11T05:23:08;21.20;99.90
14527;DHT22;7350;51.208;4.238;2022-08-11T05:25:56;21.10;99.90
14527;DHT22;7350;51.208;4.238;2022-08-11T05:28:49;21.10;99.90
14527;DHT22;7350;51.208;4.238;2022-08-11T05:31:38;21.20;99.90
14527;DHT22;7350;51.208;4.238;2022-08-11T05:34:26;21.40;99.90
14527;DHT22;7350;51.208;4.238;2022-08-11T05:37:15;21.30;99.90
14527;DHT22;7350;51.208;4.238;2022-08-11T05:39:48;21.30;99.90
14527;DHT22;7350;51.208;4.238;2022-08-11T05:42:34;21.40;99.90
14527;DHT22;7350;51.208;4.238;2022-08-11T05:45:23;21.40;99.90
14527;DHT22;7350;51.208;4.238;2022-08-11T05:48:07;21.50;99.90
14527;DHT22;7350;51.208;4.238;2022-08-11T05:50:54;21.50;99.90
14527;DHT22;7350;51.208;4.238;2022-08-11T05:53:48;21.70;99.90
14527;DHT22;7350;51.208;4.238;2022-08-11T05:56:34;21.70;99.90
14527;DHT22;7350;51.208;4.238;2022-08-11T05:59:11;21.50;99.90
14527;DHT22;7350;51.208;4.238;2022-08-11T06:01:41;21.60;99.90
14527;DHT22;7350;51.208;4.238;2022-08-11T06:04:15;21.80;99.90
14527;DHT22;7350;51.208;4.238;2022-08-11T06:06:51;21.80;99.90
14527;DHT22;7350;51.208;4.238;2022-08-11T06:09:27;21.90;99.90
14527;DHT22;7350;51.208;4.238;2022-08-11T06:11:57;22.10;99.90
14527;DHT22;7350;51.208;4.238;2022-08-11T06:14:25;22.50;99.90
14527;DHT22;7350;51.208;4.238;2022-08-11T06:16:56;22.70;99.90
14527;DHT22;7350;51.208;4.238;2022-08-11T06:19:32;22.60;99.90
14527;DHT22;7350;51.208;4.238;2022-08-11T06:22:01;22.70;99.90
14527;DHT22;7350;51.208;4.238;2022-08-11T06:24:29;22.80;99.90
14527;DHT22;7350;51.208;4.238;2022-08-11T06:26:57;22.80;99.90
14527;DHT22;7350;51.208;4.238;2022-08-11T06:29:25;22.90;99.90
14527;DHT22;7350;51.208;4.238;2022-08-11T06:31:56;23.20;99.90
14527;DHT22;7350;51.208;4.238;2022-08-11T06:34:31;23.20;99.90
14527;DHT22;7350;51.208;4.238;2022-08-11T06:37:13;23.10;99.90
14527;DHT22;7350;51.208;4.238;2022-08-11T06:39:47;23.10;99.90
14527;DHT22;7350;51.208;4.238;2022-08-11T06:42:31;23.30;99.90
14527;DHT22;7350;51.208;4.238;2022-08-11T06:45:04;23.40;99.90
14527;DHT22;7350;51.208;4.238;2022-08-11T06:47:34;23.60;99.90
14527;DHT22;7350;51.208;4.238;2022-08-11T06:50:02;23.40;99.90
14527;DHT22;7350;51.208;4.238;2022-08-11T06:52:46;23.60;99.90
14527;DHT22;7350;51.208;4.238;2022-08-11T06:55:21;23.80;99.90
14527;DHT22;7350;51.208;4.238;2022-08-11T06:58:12;23.90;99.90
14527;DHT22;7350;51.208;4.238;2022-08-11T07:01:00;24.10;99.90
14527;DHT22;7350;51.208;4.238;2022-08-11T07:03:38;24.10;99.90
14527;DHT22;7350;51.208;4.238;2022-08-11T07:06:24;24.10;99.90
14527;DHT22;7350;51.208;4.238;2022-08-11T07:09:14;24.10;99.90
14527;DHT22;7350;51.208;4.238;2022-08-11T07:12:26;24.20;99.90
14527;DHT22;7350;51.208;4.238;2022-08-11T07:15:15;24.10;99.90
14527;DHT22;7350;51.208;4.238;2022-08-11T07:18:02;24.40;99.90
14527;DHT22;7350;51.208;4.238;2022-08-11T07:20:49;24.60;99.90
14527;DHT22;7350;51.208;4.238;2022-08-11T07:23:35;24.80;99.90
14527;DHT22;7350;51.208;4.238;2022-08-11T07:26:23;24.90;99.90
14527;DHT22;7350;51.208;4.238;2022-08-11T07:29:09;24.90;99.90
14527;DHT22;7350;51.208;4.238;2022-08-11T07:31:40;25.10;99.90
14527;DHT22;7350;51.208;4.238;2022-08-11T07:34:18;25.20;99.90
14527;DHT22;7350;51.208;4.238;2022-08-11T07:36:50;25.30;99.90
14527;DHT22;7350;51.208;4.238;2022-08-11T07:39:20;25.30;99.90
14527;DHT22;7350;51.208;4.238;2022-08-11T07:41:49;25.40;99.90
14527;DHT22;7350;51.208;4.238;2022-08-11T07:44:17;25.80;99.90
14527;DHT22;7350;51.208;4.238;2022-08-11T07:46:47;25.90;99.90
14527;DHT22;7350;51.208;4.238;2022-08-11T07:49:35;26.10;99.90
14527;DHT22;7350;51.208;4.238;2022-08-11T07:52:22;26.10;99.90
14527;DHT22;7350;51.208;4.238;2022-08-11T07:54:59;25.80;99.90
14527;DHT22;7350;51.208;4.238;2022-08-11T07:57:27;26.00;99.90
14527;DHT22;7350;51.208;4.238;2022-08-11T08:00:12;26.30;99.90
14527;DHT22;7350;51.208;4.238;2022-08-11T08:02:58;26.30;99.90
14527;DHT22;7350;51.208;4.238;2022-08-11T08:05:44;26.50;99.90
14527;DHT22;7350;51.208;4.238;2022-08-11T08:08:30;26.70;99.90
14527;DHT22;7350;51.208;4.238;2022-08-11T08:11:15;26.90;99.90
14527;DHT22;7350;51.208;4.238;2022-08-11T08:14:00;26.80;99.90
14527;DHT22;7350;51.208;4.238;2022-08-11T08:16:45;27.00;99.90
14527;DHT22;7350;51.208;4.238;2022-08-11T08:19:30;27.30;99.90
14527;DHT22;7350;51.208;4.238;2022-08-11T08:21:58;27.40;99.90
14527;DHT22;7350;51.208;4.238;2022-08-11T08:24:27;27.40;99.90
14527;DHT22;7350;51.208;4.238;2022-08-11T08:26:55;27.40;99.90
14527;DHT22;7350;51.208;4.238;2022-08-11T08:29:27;27.40;99.90
14527;DHT22;7350;51.208;4.238;2022-08-11T08:32:13;27.20;99.90
14527;DHT22;7350;51.208;4.238;2022-08-11T08:34:42;27.30;99.90
14527;DHT22;7350;51.208;4.238;2022-08-11T08:37:10;27.60;99.90
14527;DHT22;7350;51.208;4.238;2022-08-11T08:39:39;27.50;99.90
14527;DHT22;7350;51.208;4.238;2022-08-11T08:42:09;27.50;99.90
14527;DHT22;7350;51.208;4.238;2022-08-11T08:44:41;27.50;99.90
14527;DHT22;7350;51.208;4.238;2022-08-11T08:47:13;27.60;99.90
14527;DHT22;7350;51.208;4.238;2022-08-11T08:49:44;27.60;99.90
14527;DHT22;7350;51.208;4.238;2022-08-11T08:52:17;27.60;99.90
14527;DHT22;7350;51.208;4.238;2022-08-11T08:54:48;27.70;99.90
14527;DHT22;7350;51.208;4.238;2022-08-11T08:57:19;27.70;99.90
14527;DHT22;7350;51.208;4.238;2022-08-11T08:59:49;27.50;99.90
14527;DHT22;7350;51.208;4.238;2022-08-11T09:02:17;27.80;99.90
14527;DHT22;7350;51.208;4.238;2022-08-11T09:04:45;27.80;99.90
14527;DHT22;7350;51.208;4.238;2022-08-11T09:07:15;27.80;99.90
14527;DHT22;7350;51.208;4.238;2022-08-11T09:09:47;27.80;99.90
14527;DHT22;7350;51.208;4.238;2022-08-11T09:12:14;27.90;99.90
14527;DHT22;7350;51.208;4.238;2022-08-11T09:14:48;28.00;99.90
14527;DHT22;7350;51.208;4.238;2022-08-11T09:17:38;28.10;99.90
14527;DHT22;7350;51.208;4.238;2022-08-11T09:20:08;28.10;99.90
14527;DHT22;7350;51.208;4.238;2022-08-11T09:22:38;28.10;99.90
14527;DHT22;7350;51.208;4.238;2022-08-11T09:25:27;28.40;99.90
14527;DHT22;7350;51.208;4.238;2022-08-11T09:28:14;28.40;99.90
14527;DHT22;7350;51.208;4.238;2022-08-11T09:30:42;28.70;99.90
14527;DHT22;7350;51.208;4.238;2022-08-11T09:33:11;28.90;99.90
14527;DHT22;7350;51.208;4.238;2022-08-11T09:35:40;28.90;99.90
14527;DHT22;7350;51.208;4.238;2022-08-11T09:38:11;29.00;99.90
14527;DHT22;7350;51.208;4.238;2022-08-11T09:40:58;29.30;99.90
14527;DHT22;7350;51.208;4.238;2022-08-11T09:43:26;29.40;99.90
14527;DHT22;7350;51.208;4.238;2022-08-11T09:46:23;29.30;99.90
14527;DHT22;7350;51.208;4.238;2022-08-11T09:48:54;29.40;99.90
14527;DHT22;7350;51.208;4.238;2022-08-11T09:51:22;29.60;99.90
14527;DHT22;7350;51.208;4.238;2022-08-11T09:53:49;29.70;99.90
14527;DHT22;7350;51.208;4.238;2022-08-11T09:56:21;29.70;99.90
14527;DHT22;7350;51.208;4.238;2022-08-11T09:59:06;29.60;99.90
14527;DHT22;7350;51.208;4.238;2022-08-11T10:01:36;29.80;99.90
14527;DHT22;7350;51.208;4.238;2022-08-11T10:04:11;29.70;99.90
14527;DHT22;7350;51.208;4.238;2022-08-11T10:06:41;29.90;99.90
14527;DHT22;7350;51.208;4.238;2022-08-11T10:09:28;29.70;99.90
14527;DHT22;7350;51.208;4.238;2022-08-11T10:12:03;29.90;99.90
14527;DHT22;7350;51.208;4.238;2022-08-11T10:14:33;29.90;99.90
14527;DHT22;7350;51.208;4.238;2022-08-11T10:17:21;30.00;99.90
14527;DHT22;7350;51.208;4.238;2022-08-11T10:19:49;30.10;99.90
14527;DHT22;7350;51.208;4.238;2022-08-11T10:22:17;30.10;99.90
14527;DHT22;7350;51.208;4.238;2022-08-11T10:25:03;30.10;99.90
14527;DHT22;7350;51.208;4.238;2022-08-11T10:27:49;30.10;99.90
14527;DHT22;7350;51.208;4.238;2022-08-11T10:30:24;30.40;99.90
14527;DHT22;7350;51.208;4.238;2022-08-11T10:33:08;30.40;99.90
14527;DHT22;7350;51.208;4.238;2022-08-11T10:35:52;30.40;99.90
14527;DHT22;7350;51.208;4.238;2022-08-11T10:38:20;30.30;99.90
14527;DHT22;7350;51.208;4.238;2022-08-11T10:40:47;30.40;99.90
14527;DHT22;7350;51.208;4.238;2022-08-11T10:43:39;30.40;99.90
14527;DHT22;7350;51.208;4.238;2022-08-11T10:46:07;30.60;99.90
14527;DHT22;7350;51.208;4.238;2022-08-11T10:48:52;30.60;99.90
14527;DHT22;7350;51.208;4.238;2022-08-11T10:51:20;30.80;99.90
14527;DHT22;7350;51.208;4.238;2022-08-11T10:54:05;30.90;99.90
14527;DHT22;7350;51.208;4.238;2022-08-11T10:56:50;30.80;99.90
14527;DHT22;7350;51.208;4.238;2022-08-11T10:59:37;30.60;99.90
14527;DHT22;7350;51.208;4.238;2022-08-11T11:02:08;30.50;99.90
14527;DHT22;7350;51.208;4.238;2022-08-11T11:04:51;30.70;99.90
14527;DHT22;7350;51.208;4.238;2022-08-11T11:07:28;30.60;99.90
14527;DHT22;7350;51.208;4.238;2022-08-11T11:10:00;30.60;99.90
14527;DHT22;7350;51.208;4.238;2022-08-11T11:12:34;30.90;99.90
14527;DHT22;7350;51.208;4.238;2022-08-11T11:15:22;30.90;99.90
14527;DHT22;7350;51.208;4.238;2022-08-11T11:18:08;30.80;99.60
14527;DHT22;7350;51.208;4.238;2022-08-11T11:20:40;30.90;99.00
14527;DHT22;7350;51.208;4.238;2022-08-11T11:23:13;31.10;99.00
14527;DHT22;7350;51.208;4.238;2022-08-11T11:26:00;31.00;97.90
14527;DHT22;7350;51.208;4.238;2022-08-11T11:32:10;31.00;98.20
14527;DHT22;7350;51.208;4.238;2022-08-11T11:35:03;31.20;98.50
14527;DHT22;7350;51.208;4.238;2022-08-11T11:37:36;31.30;97.50
14527;DHT22;7350;51.208;4.238;2022-08-11T11:40:08;31.40;96.90
14527;DHT22;7350;51.208;4.238;2022-08-11T11:42:36;31.40;97.20
14527;DHT22;7350;51.208;4.238;2022-08-11T11:45:05;31.40;96.70
14527;DHT22;7350;51.208;4.238;2022-08-11T11:47:35;31.60;96.10
14527;DHT22;7350;51.208;4.238;2022-08-11T11:50:04;31.70;95.30
14527;DHT22;7350;51.208;4.238;2022-08-11T11:52:33;31.50;95.70
14527;DHT22;7350;51.208;4.238;2022-08-11T11:55:01;31.40;94.00
14527;DHT22;7350;51.208;4.238;2022-08-11T11:57:30;31.50;93.00
14527;DHT22;7350;51.208;4.238;2022-08-11T12:00:21;31.50;92.40
14527;DHT22;7350;51.208;4.238;2022-08-11T12:03:09;31.70;91.80
14527;DHT22;7350;51.208;4.238;2022-08-11T12:05:37;31.80;92.00
14527;DHT22;7350;51.208;4.238;2022-08-11T12:08:05;31.90;92.90
14527;DHT22;7350;51.208;4.238;2022-08-11T12:10:43;31.80;92.10
14527;DHT22;7350;51.208;4.238;2022-08-11T12:13:12;31.60;91.90
14527;DHT22;7350;51.208;4.238;2022-08-11T12:15:57;31.60;92.10
14527;DHT22;7350;51.208;4.238;2022-08-11T12:18:30;31.80;91.30
14527;DHT22;7350;51.208;4.238;2022-08-11T12:20:59;31.80;90.90
14527;DHT22;7350;51.208;4.238;2022-08-11T12:23:27;31.80;91.20
14527;DHT22;7350;51.208;4.238;2022-08-11T12:26:13;31.90;90.60
14527;DHT22;7350;51.208;4.238;2022-08-11T12:28:59;31.80;90.20
14527;DHT22;7350;51.208;4.238;2022-08-11T12:31:28;31.90;90.20
14527;DHT22;7350;51.208;4.238;2022-08-11T12:34:04;31.90;90.10
14527;DHT22;7350;51.208;4.238;2022-08-11T12:36:34;32.00;87.70
14527;DHT22;7350;51.208;4.238;2022-08-11T12:39:05;31.90;87.40
14527;DHT22;7350;51.208;4.238;2022-08-11T12:41:34;32.00;86.00
14527;DHT22;7350;51.208;4.238;2022-08-11T12:44:20;31.80;87.00
14527;DHT22;7350;51.208;4.238;2022-08-11T12:47:07;31.70;85.90
14527;DHT22;7350;51.208;4.238;2022-08-11T12:49:40;31.90;87.10
14527;DHT22;7350;51.208;4.238;2022-08-11T12:52:31;32.10;86.30
14527;DHT22;7350;51.208;4.238;2022-08-11T12:55:02;32.10;85.30
14527;DHT22;7350;51.208;4.238;2022-08-11T12:57:35;32.10;85.60
14527;DHT22;7350;51.208;4.238;2022-08-11T13:00:21;32.00;86.90
14527;DHT22;7350;51.208;4.238;2022-08-11T13:03:08;32.10;85.90
14527;DHT22;7350;51.208;4.238;2022-08-11T13:05:56;32.40;85.50
14527;DHT22;7350;51.208;4.238;2022-08-11T13:08:25;32.10;82.40
14527;DHT22;7350;51.208;4.238;2022-08-11T13:10:55;32.30;82.80
14527;DHT22;7350;51.208;4.238;2022-08-11T13:13:41;32.30;80.80
14527;DHT22;7350;51.208;4.238;2022-08-11T13:16:09;31.80;81.00
14527;DHT22;7350;51.208;4.238;2022-08-11T13:18:38;31.90;81.20
14527;DHT22;7350;51.208;4.238;2022-08-11T13:21:09;32.10;80.30
14527;DHT22;7350;51.208;4.238;2022-08-11T13:23:37;32.10;82.10
14527;DHT22;7350;51.208;4.238;2022-08-11T13:26:06;32.20;81.40
14527;DHT22;7350;51.208;4.238;2022-08-11T13:28:34;32.20;79.30
14527;DHT22;7350;51.208;4.238;2022-08-11T13:31:02;32.30;79.80
14527;DHT22;7350;51.208;4.238;2022-08-11T13:33:42;32.30;79.80
14527;DHT22;7350;51.208;4.238;2022-08-11T13:36:12;32.30;76.60
14527;DHT22;7350;51.208;4.238;2022-08-11T13:38:41;32.30;77.90
14527;DHT22;7350;51.208;4.238;2022-08-11T13:41:09;32.30;79.70
14527;DHT22;7350;51.208;4.238;2022-08-11T13:43:50;32.30;77.80
14527;DHT22;7350;51.208;4.238;2022-08-11T13:46:19;32.50;77.20
14527;DHT22;7350;51.208;4.238;2022-08-11T13:48:49;32.60;77.00
14527;DHT22;7350;51.208;4.238;2022-08-11T13:51:18;32.50;74.80
14527;DHT22;7350;51.208;4.238;2022-08-11T13:54:01;32.60;74.80
14527;DHT22;7350;51.208;4.238;2022-08-11T13:56:29;32.60;77.10
14527;DHT22;7350;51.208;4.238;2022-08-11T13:58:57;32.70;75.40
14527;DHT22;7350;51.208;4.238;2022-08-11T14:01:30;32.80;74.40
14527;DHT22;7350;51.208;4.238;2022-08-11T14:04:02;32.90;73.90
14527;DHT22;7350;51.208;4.238;2022-08-11T14:06:33;32.90;73.00
14527;DHT22;7350;51.208;4.238;2022-08-11T14:09:02;32.90;73.60
14527;DHT22;7350;51.208;4.238;2022-08-11T14:11:30;33.00;72.50
14527;DHT22;7350;51.208;4.238;2022-08-11T14:14:22;32.80;72.80
14527;DHT22;7350;51.208;4.238;2022-08-11T14:16:53;32.90;74.30
14527;DHT22;7350;51.208;4.238;2022-08-11T14:19:24;32.80;70.50
14527;DHT22;7350;51.208;4.238;2022-08-11T14:21:56;32.90;72.00
14527;DHT22;7350;51.208;4.238;2022-08-11T14:24:37;33.00;71.50
14527;DHT22;7350;51.208;4.238;2022-08-11T14:27:06;33.00;71.80
14527;DHT22;7350;51.208;4.238;2022-08-11T14:29:34;33.00;70.70
14527;DHT22;7350;51.208;4.238;2022-08-11T14:32:06;32.90;68.90
14527;DHT22;7350;51.208;4.238;2022-08-11T14:34:35;32.80;69.60
14527;DHT22;7350;51.208;4.238;2022-08-11T14:37:06;33.00;68.70
14527;DHT22;7350;51.208;4.238;2022-08-11T14:39:40;33.00;68.50
14527;DHT22;7350;51.208;4.238;2022-08-11T14:42:08;33.00;69.10
14527;DHT22;7350;51.208;4.238;2022-08-11T14:44:56;33.00;69.50
14527;DHT22;7350;51.208;4.238;2022-08-11T14:47:46;33.00;69.90
14527;DHT22;7350;51.208;4.238;2022-08-11T14:50:16;32.90;70.20
14527;DHT22;7350;51.208;4.238;2022-08-11T14:52:50;33.00;70.80
14527;DHT22;7350;51.208;4.238;2022-08-11T14:55:20;32.80;68.80
14527;DHT22;7350;51.208;4.238;2022-08-11T14:58:07;32.80;69.60
14527;DHT22;7350;51.208;4.238;2022-08-11T15:00:35;32.70;69.40
14527;DHT22;7350;51.208;4.238;2022-08-11T15:03:05;32.80;68.60
14527;DHT22;7350;51.208;4.238;2022-08-11T15:05:36;32.80;69.40
14527;DHT22;7350;51.208;4.238;2022-08-11T15:08:08;32.90;70.00
14527;DHT22;7350;51.208;4.238;2022-08-11T15:10:36;32.90;69.20
14527;DHT22;7350;51.208;4.238;2022-08-11T15:13:03;33.00;69.10
14527;DHT22;7350;51.208;4.238;2022-08-11T15:15:31;32.80;69.00
14527;DHT22;7350;51.208;4.238;2022-08-11T15:18:18;32.80;69.80
14527;DHT22;7350;51.208;4.238;2022-08-11T15:20:46;33.00;69.00
14527;DHT22;7350;51.208;4.238;2022-08-11T15:23:32;32.80;68.30
14527;DHT22;7350;51.208;4.238;2022-08-11T15:26:27;32.90;68.30
14527;DHT22;7350;51.208;4.238;2022-08-11T15:29:11;33.00;66.60
14527;DHT22;7350;51.208;4.238;2022-08-11T15:31:57;32.90;66.50
14527;DHT22;7350;51.208;4.238;2022-08-11T15:34:43;32.80;64.70
14527;DHT22;7350;51.208;4.238;2022-08-11T15:37:31;32.70;66.40
14527;DHT22;7350;51.208;4.238;2022-08-11T15:40:11;32.70;67.30
14527;DHT22;7350;51.208;4.238;2022-08-11T15:42:59;32.80;67.40
14527;DHT22;7350;51.208;4.238;2022-08-11T15:45:45;32.90;67.90
14527;DHT22;7350;51.208;4.238;2022-08-11T15:48:25;32.80;67.40
14527;DHT22;7350;51.208;4.238;2022-08-11T15:50:56;32.70;68.50
14527;DHT22;7350;51.208;4.238;2022-08-11T15:53:32;32.60;68.80
14527;DHT22;7350;51.208;4.238;2022-08-11T15:56:02;32.60;67.00
14527;DHT22;7350;51.208;4.238;2022-08-11T15:58:33;32.60;68.20
14527;DHT22;7350;51.208;4.238;2022-08-11T16:01:20;32.60;66.50
14527;DHT22;7350;51.208;4.238;2022-08-11T16:04:08;32.60;68.80
14527;DHT22;7350;51.208;4.238;2022-08-11T16:06:48;32.60;63.80
14527;DHT22;7350;51.208;4.238;2022-08-11T16:09:22;32.50;63.50
14527;DHT22;7350;51.208;4.238;2022-08-11T16:11:53;32.40;63.60
14527;DHT22;7350;51.208;4.238;2022-08-11T16:14:22;32.30;64.00
14527;DHT22;7350;51.208;4.238;2022-08-11T16:17:10;32.60;63.80
14527;DHT22;7350;51.208;4.238;2022-08-11T16:19:39;32.60;63.90
14527;DHT22;7350;51.208;4.238;2022-08-11T16:22:09;32.60;63.50
14527;DHT22;7350;51.208;4.238;2022-08-11T16:24:40;32.30;63.80
14527;DHT22;7350;51.208;4.238;2022-08-11T16:27:12;32.20;65.30
14527;DHT22;7350;51.208;4.238;2022-08-11T16:29:43;32.30;65.70
14527;DHT22;7350;51.208;4.238;2022-08-11T16:32:15;32.50;66.20
14527;DHT22;7350;51.208;4.238;2022-08-11T16:34:44;32.40;65.70
14527;DHT22;7350;51.208;4.238;2022-08-11T16:37:32;32.30;65.60
14527;DHT22;7350;51.208;4.238;2022-08-11T16:40:18;32.30;66.50
14527;DHT22;7350;51.208;4.238;2022-08-11T16:42:49;32.40;67.40
14527;DHT22;7350;51.208;4.238;2022-08-11T16:45:35;32.50;66.70
14527;DHT22;7350;51.208;4.238;2022-08-11T16:48:21;32.60;66.40
14527;DHT22;7350;51.208;4.238;2022-08-11T16:50:49;32.60;66.80
14527;DHT22;7350;51.208;4.238;2022-08-11T16:53:16;32.40;67.40
14527;DHT22;7350;51.208;4.238;2022-08-11T16:55:45;32.30;66.70
14527;DHT22;7350;51.208;4.238;2022-08-11T16:58:15;32.30;66.90
14527;DHT22;7350;51.208;4.238;2022-08-11T17:01:00;32.30;66.60
14527;DHT22;7350;51.208;4.238;2022-08-11T17:03:29;32.30;67.00
14527;DHT22;7350;51.208;4.238;2022-08-11T17:06:17;32.20;67.00
14527;DHT22;7350;51.208;4.238;2022-08-11T17:09:03;32.00;66.30
14527;DHT22;7350;51.208;4.238;2022-08-11T17:11:52;32.00;66.10
14527;DHT22;7350;51.208;4.238;2022-08-11T17:14:52;32.00;66.70
14527;DHT22;7350;51.208;4.238;2022-08-11T17:17:25;31.90;66.30
14527;DHT22;7350;51.208;4.238;2022-08-11T17:20:04;31.90;65.70
14527;DHT22;7350;51.208;4.238;2022-08-11T17:22:35;31.80;66.90
14527;DHT22;7350;51.208;4.238;2022-08-11T17:25:23;31.80;67.50
14527;DHT22;7350;51.208;4.238;2022-08-11T17:27:53;31.70;67.70
14527;DHT22;7350;51.208;4.238;2022-08-11T17:30:24;31.80;68.10
14527;DHT22;7350;51.208;4.238;2022-08-11T17:33:14;31.90;68.20
14527;DHT22;7350;51.208;4.238;2022-08-11T17:35:59;31.80;67.60
14527;DHT22;7350;51.208;4.238;2022-08-11T17:38:27;31.90;67.90
14527;DHT22;7350;51.208;4.238;2022-08-11T17:40:58;31.90;67.80
14527;DHT22;7350;51.208;4.238;2022-08-11T17:43:44;31.80;68.00